createdAt,value
2018-11-29T00:00:47.646Z,56.17
2018-11-29T00:01:47.637Z,55.87
2018-11-29T00:02:47.731Z,55.87
2018-11-29T00:03:47.614Z,55.47
2018-11-29T00:04:47.602Z,54.97
2018-11-29T00:05:47.593Z,54.97
2018-11-29T00:06:47.582Z,55.17
2018-11-29T00:07:47.575Z,55.37
2018-11-29T00:08:47.672Z,55.44
2018-11-29T00:09:49.856Z,55.47
2018-11-29T00:10:47.541Z,55.37
2018-11-29T00:11:47.527Z,55.35
2018-11-29T00:12:47.518Z,55.57
2018-11-29T00:13:47.509Z,55.55
2018-11-29T00:14:47.604Z,55.47
2018-11-29T00:15:47.485Z,55.35
2018-11-29T00:16:47.477Z,55.37
2018-11-29T00:17:47.467Z,55.35
2018-11-29T00:18:47.455Z,55.47
2018-11-29T00:19:47.443Z,55.47
2018-11-29T00:20:47.800Z,55.47
2018-11-29T00:21:47.420Z,55.47
2018-11-29T00:22:47.412Z,55.37
2018-11-29T00:23:47.401Z,55.67
2018-11-29T00:24:47.399Z,55.35
2018-11-29T00:25:47.380Z,55.15
2018-11-29T00:26:47.502Z,55.15
2018-11-29T00:27:47.356Z,55.44
2018-11-29T00:28:47.345Z,55.55
2018-11-29T00:29:47.335Z,55.44
2018-11-29T00:30:47.325Z,55.44
2018-11-29T00:31:47.315Z,55.55
2018-11-29T00:32:47.574Z,55.35
2018-11-29T00:33:47.294Z,55.15
2018-11-29T00:34:47.286Z,55.44
2018-11-29T00:35:47.271Z,55.35
2018-11-29T00:36:47.261Z,55.35
2018-11-29T00:37:47.254Z,55.52
2018-11-29T00:38:47.405Z,55.55
2018-11-29T00:39:47.229Z,55.22
2018-11-29T00:40:47.219Z,55.12
2018-11-29T00:41:47.208Z,54.22
2018-11-29T00:42:47.202Z,54.42
2018-11-29T00:43:47.187Z,55.22
2018-11-29T00:44:47.272Z,55.02
2018-11-29T00:45:47.165Z,55.32
2018-11-29T00:46:47.156Z,55.32
2018-11-29T00:47:47.148Z,55.32
2018-11-29T00:48:47.137Z,55.02
2018-11-29T00:49:47.127Z,54.92
2018-11-29T00:50:47.210Z,55.35
2018-11-29T00:51:47.116Z,55.42
2018-11-29T00:52:47.091Z,55.44
2018-11-29T00:53:47.079Z,55.65
2018-11-29T00:54:47.069Z,54.92
2018-11-29T00:55:47.058Z,55.44
2018-11-29T00:56:47.313Z,55.44
2018-11-29T00:57:47.038Z,54.92
2018-11-29T00:58:47.027Z,55.32
2018-11-29T00:59:47.019Z,55.52
2018-11-29T01:00:47.007Z,55.42
2018-11-29T01:01:46.994Z,55.32
2018-11-29T01:02:47.082Z,55.52
2018-11-29T01:03:46.974Z,55.65
2018-11-29T01:04:46.963Z,55.22
2018-11-29T01:05:46.955Z,55.62
2018-11-29T01:06:46.942Z,55.02
2018-11-29T01:07:46.930Z,55.12
2018-11-29T01:08:47.023Z,55.02
2018-11-29T01:09:46.909Z,55.52
2018-11-29T01:10:46.901Z,55.22
2018-11-29T01:11:46.887Z,55.72
2018-11-29T01:12:46.880Z,55.62
2018-11-29T01:13:46.868Z,55.32
2018-11-29T01:14:47.054Z,55.72
2018-11-29T01:15:46.846Z,55.52
2018-11-29T01:16:46.835Z,55.52
2018-11-29T01:17:46.823Z,55.22
2018-11-29T01:18:46.812Z,55.35
2018-11-29T01:19:46.802Z,55.12
2018-11-29T01:20:46.898Z,54.82
2018-11-29T01:21:46.783Z,55.02
2018-11-29T01:22:46.770Z,55.12
2018-11-29T01:23:46.760Z,55.42
2018-11-29T01:24:46.749Z,54.92
2018-11-29T01:25:46.747Z,55.22
2018-11-29T01:26:46.825Z,55.44
2018-11-29T01:27:46.717Z,55.15
2018-11-29T01:28:46.716Z,55.44
2018-11-29T01:29:46.700Z,55.55
2018-11-29T01:30:46.685Z,55.55
2018-11-29T01:31:46.677Z,55.55
2018-11-29T01:32:46.840Z,55.42
2018-11-29T01:33:46.653Z,55.52
2018-11-29T01:34:46.642Z,55.35
2018-11-29T01:35:46.632Z,55.52
2018-11-29T01:36:46.621Z,55.55
2018-11-29T01:37:46.610Z,55.55
2018-11-29T01:38:46.767Z,55.62
2018-11-29T01:39:46.589Z,55.22
2018-11-29T01:40:46.581Z,55.42
2018-11-29T01:41:46.568Z,55.05
2018-11-29T01:42:46.557Z,55.44
2018-11-29T01:43:46.547Z,55.24
2018-11-29T01:44:46.644Z,55.52
2018-11-29T01:45:46.524Z,55.24
2018-11-29T01:46:46.516Z,55.52
2018-11-29T01:47:46.503Z,55.35
2018-11-29T01:48:46.492Z,55.55
2018-11-29T01:49:46.481Z,55.35
2018-11-29T01:50:46.672Z,55.35
2018-11-29T01:51:46.460Z,55.35
2018-11-29T01:52:46.454Z,55.24
2018-11-29T01:53:46.438Z,55.24
2018-11-29T01:54:46.428Z,55.24
2018-11-29T01:55:46.418Z,55.24
2018-11-29T01:56:46.560Z,55.35
2018-11-29T01:57:46.397Z,55.44
2018-11-29T01:58:46.386Z,55.44
2018-11-29T01:59:46.374Z,55.44
2018-11-29T02:00:46.365Z,55.35
2018-11-29T02:01:46.352Z,55.55
2018-11-29T02:02:46.444Z,55.35
2018-11-29T02:03:46.331Z,55.55
2018-11-29T02:04:46.322Z,55.44
2018-11-29T02:05:46.311Z,55.35
2018-11-29T02:06:46.302Z,55.35
2018-11-29T02:07:46.290Z,55.35
2018-11-29T02:08:46.375Z,55.35
2018-11-29T02:09:46.269Z,55.44
2018-11-29T02:10:46.259Z,55.55
2018-11-29T02:11:46.249Z,55.55
2018-11-29T02:12:46.241Z,55.24
2018-11-29T02:13:46.227Z,55.57
2018-11-29T02:14:46.372Z,55.44
2018-11-29T02:15:46.205Z,55.27
2018-11-29T02:16:46.194Z,55.24
2018-11-29T02:17:46.185Z,55.27
2018-11-29T02:18:46.174Z,55.24
2018-11-29T02:19:46.163Z,55.24
2018-11-29T02:20:46.258Z,55.47
2018-11-29T02:21:46.143Z,55.27
2018-11-29T02:22:46.135Z,55.37
2018-11-29T02:23:46.121Z,55.55
2018-11-29T02:24:46.108Z,55.35
2018-11-29T02:25:46.099Z,55.37
2018-11-29T02:26:46.250Z,55.27
2018-11-29T02:27:46.077Z,55.55
2018-11-29T02:28:46.067Z,55.37
2018-11-29T02:29:46.057Z,55.65
2018-11-29T02:30:46.044Z,55.44
2018-11-29T02:31:46.035Z,55.35
2018-11-29T02:32:46.135Z,55.47
2018-11-29T02:33:46.013Z,55.47
2018-11-29T02:34:46.003Z,55.47
2018-11-29T02:35:45.991Z,55.55
2018-11-29T02:36:45.981Z,55.67
2018-11-29T02:37:45.974Z,55.67
2018-11-29T02:38:46.113Z,55.57
2018-11-29T02:39:45.950Z,55.47
2018-11-29T02:40:45.944Z,55.37
2018-11-29T02:41:45.927Z,55.47
2018-11-29T02:42:45.917Z,55.47
2018-11-29T02:43:45.906Z,55.67
2018-11-29T02:44:46.052Z,55.55
2018-11-29T02:45:45.885Z,55.57
2018-11-29T02:46:45.873Z,55.87
2018-11-29T02:47:45.864Z,55.57
2018-11-29T02:48:45.854Z,55.37
2018-11-29T02:49:45.885Z,55.57
2018-11-29T02:50:45.998Z,55.57
2018-11-29T02:51:45.822Z,55.27
2018-11-29T02:52:45.811Z,55.55
2018-11-29T02:53:45.799Z,55.47
2018-11-29T02:54:45.789Z,55.47
2018-11-29T02:55:45.778Z,55.37
2018-11-29T02:56:45.866Z,55.27
2018-11-29T02:57:45.756Z,55.27
2018-11-29T02:58:45.746Z,55.27
2018-11-29T02:59:45.737Z,55.27
2018-11-29T03:00:45.737Z,55.27
2018-11-29T03:01:45.716Z,55.27
2018-11-29T03:02:45.836Z,55.47
2018-11-29T03:03:45.703Z,55.47
2018-11-29T03:04:45.681Z,55.57
2018-11-29T03:05:45.672Z,55.47
2018-11-29T03:06:45.663Z,55.47
2018-11-29T03:07:45.654Z,55.47
2018-11-29T03:08:45.921Z,55.37
2018-11-29T03:09:45.628Z,55.37
2018-11-29T03:10:45.616Z,55.27
2018-11-29T03:11:45.606Z,55.27
2018-11-29T03:12:45.597Z,55.37
2018-11-29T03:13:45.590Z,55.37
2018-11-29T03:14:45.676Z,55.37
2018-11-29T03:15:45.565Z,55.17
2018-11-29T03:16:45.554Z,55.17
2018-11-29T03:17:45.547Z,55.37
2018-11-29T03:18:45.532Z,55.17
2018-11-29T03:19:45.524Z,55.27
2018-11-29T03:20:45.645Z,55.27
2018-11-29T03:21:45.501Z,55.17
2018-11-29T03:22:45.497Z,55.17
2018-11-29T03:23:45.479Z,55.27
2018-11-29T03:24:45.468Z,54.87
2018-11-29T03:25:45.457Z,55.27
2018-11-29T03:26:45.753Z,54.87
2018-11-29T03:27:45.441Z,54.87
2018-11-29T03:28:45.427Z,54.87
2018-11-29T03:29:45.417Z,54.87
2018-11-29T03:30:45.408Z,55.17
2018-11-29T03:31:45.395Z,55.27
2018-11-29T03:32:45.503Z,55.27
2018-11-29T03:33:45.372Z,55.17
2018-11-29T03:34:45.360Z,55.17
2018-11-29T03:35:45.351Z,55.17
2018-11-29T03:36:45.341Z,55.17
2018-11-29T03:37:45.329Z,55.17
2018-11-29T03:38:45.517Z,55.37
2018-11-29T03:39:45.309Z,55.17
2018-11-29T03:40:45.297Z,55.17
2018-11-29T03:41:45.285Z,55.17
2018-11-29T03:42:45.275Z,55.17
2018-11-29T03:43:45.263Z,55.17
2018-11-29T03:44:45.408Z,55.17
2018-11-29T03:45:45.244Z,55.27
2018-11-29T03:46:45.233Z,55.17
2018-11-29T03:47:45.268Z,55.27
2018-11-29T03:48:45.212Z,55.37
2018-11-29T03:49:45.200Z,55.17
2018-11-29T03:50:45.322Z,56.07
2018-11-29T03:51:45.180Z,55.17
2018-11-29T03:52:45.172Z,55.17
2018-11-29T03:53:45.157Z,54.97
2018-11-29T03:54:45.147Z,55.77
2018-11-29T03:55:45.137Z,55.98
2018-11-29T03:56:45.254Z,56.17
2018-11-29T03:57:45.119Z,56.30
2018-11-29T03:58:45.106Z,56.10
2018-11-29T03:59:45.095Z,56.20
2018-11-29T04:00:45.084Z,56.20
2018-11-29T04:01:45.071Z,56.30
2018-11-29T04:02:45.178Z,56.80
2018-11-29T04:03:45.051Z,56.20
2018-11-29T04:04:45.042Z,56.60
2018-11-29T04:05:45.029Z,56.63
2018-11-29T04:06:45.019Z,56.63
2018-11-29T04:07:45.011Z,56.43
2018-11-29T04:08:45.209Z,56.63
2018-11-29T04:09:44.990Z,56.23
2018-11-29T04:10:44.975Z,56.33
2018-11-29T04:11:44.967Z,56.73
2018-11-29T04:12:44.965Z,56.63
2018-11-29T04:13:44.950Z,56.52
2018-11-29T04:14:45.205Z,56.56
2018-11-29T04:15:44.925Z,56.85
2018-11-29T04:16:44.913Z,56.96
2018-11-29T04:17:44.903Z,56.45
2018-11-29T04:18:44.899Z,56.76
2018-11-29T04:19:44.886Z,56.45
2018-11-29T04:20:44.977Z,56.65
2018-11-29T04:21:44.859Z,56.73
2018-11-29T04:22:44.855Z,56.63
2018-11-29T04:23:44.837Z,56.13
2018-11-29T04:24:44.827Z,56.43
2018-11-29T04:25:44.819Z,56.02
2018-11-29T04:26:44.960Z,56.35
2018-11-29T04:27:44.806Z,56.43
2018-11-29T04:28:44.784Z,56.02
2018-11-29T04:29:44.774Z,56.13
2018-11-29T04:30:44.762Z,56.02
2018-11-29T04:31:44.758Z,56.23
2018-11-29T04:32:44.898Z,56.13
2018-11-29T04:33:44.730Z,56.63
2018-11-29T04:34:44.722Z,56.76
2018-11-29T04:35:44.717Z,56.63
2018-11-29T04:36:44.699Z,56.56
2018-11-29T04:37:44.687Z,56.26
2018-11-29T04:38:44.785Z,56.45
2018-11-29T04:39:44.665Z,56.56
2018-11-29T04:40:44.656Z,56.52
2018-11-29T04:41:44.648Z,56.23
2018-11-29T04:42:44.635Z,56.23
2018-11-29T04:43:44.624Z,56.13
2018-11-29T04:44:44.812Z,55.63
2018-11-29T04:45:44.603Z,56.33
2018-11-29T04:46:44.593Z,56.26
2018-11-29T04:47:44.584Z,56.02
2018-11-29T04:48:44.569Z,56.33
2018-11-29T04:49:44.559Z,56.13
2018-11-29T04:50:44.792Z,55.93
2018-11-29T04:51:44.537Z,56.02
2018-11-29T04:52:44.528Z,54.93
2018-11-29T04:53:44.517Z,54.60
2018-11-29T04:54:44.505Z,55.00
2018-11-29T04:55:44.495Z,55.32
2018-11-29T04:56:44.601Z,55.20
2018-11-29T04:57:44.473Z,55.30
2018-11-29T04:58:44.464Z,55.30
2018-11-29T04:59:44.452Z,55.50
2018-11-29T05:00:44.442Z,55.40
2018-11-29T05:01:44.436Z,55.60
2018-11-29T05:02:44.537Z,55.50
2018-11-29T05:03:44.411Z,55.20
2018-11-29T05:04:44.399Z,55.50
2018-11-29T05:05:44.387Z,55.50
2018-11-29T05:06:44.379Z,55.40
2018-11-29T05:07:44.366Z,55.00
2018-11-29T05:08:44.508Z,56.10
2018-11-29T05:09:44.346Z,56.20
2018-11-29T05:10:44.334Z,56.50
2018-11-29T05:11:44.324Z,56.23
2018-11-29T05:12:44.312Z,56.02
2018-11-29T05:13:44.370Z,56.33
2018-11-29T05:14:44.442Z,56.43
2018-11-29T05:15:44.282Z,56.13
2018-11-29T05:16:44.271Z,56.13
2018-11-29T05:17:44.261Z,56.13
2018-11-29T05:18:44.249Z,56.33
2018-11-29T05:19:44.238Z,56.02
2018-11-29T05:20:44.392Z,56.43
2018-11-29T05:21:44.217Z,56.20
2018-11-29T05:22:44.212Z,56.02
2018-11-29T05:23:44.195Z,56.40
2018-11-29T05:24:44.189Z,56.50
2018-11-29T05:25:44.173Z,56.20
2018-11-29T05:26:44.317Z,55.00
2018-11-29T05:27:44.153Z,54.80
2018-11-29T05:28:44.140Z,55.00
2018-11-29T05:29:44.130Z,55.30
2018-11-29T05:30:44.119Z,55.30
2018-11-29T05:31:44.109Z,55.30
2018-11-29T05:32:44.210Z,55.47
2018-11-29T05:33:44.089Z,55.47
2018-11-29T05:34:44.077Z,55.40
2018-11-29T05:35:44.067Z,55.47
2018-11-29T05:36:44.057Z,55.47
2018-11-29T05:37:44.045Z,55.57
2018-11-29T05:38:44.139Z,55.98
2018-11-29T05:39:44.023Z,55.37
2018-11-29T05:40:44.014Z,55.37
2018-11-29T05:41:44.007Z,55.47
2018-11-29T05:42:43.995Z,55.37
2018-11-29T05:43:43.980Z,55.47
2018-11-29T05:44:44.244Z,55.44
2018-11-29T05:45:43.959Z,55.47
2018-11-29T05:46:43.948Z,55.27
2018-11-29T05:47:43.942Z,55.17
2018-11-29T05:48:43.928Z,54.87
2018-11-29T05:49:43.916Z,56.17
2018-11-29T05:50:44.011Z,55.67
2018-11-29T05:51:43.894Z,55.77
2018-11-29T05:52:43.892Z,54.97
2018-11-29T05:53:43.872Z,55.17
2018-11-29T05:54:43.862Z,56.17
2018-11-29T05:55:43.852Z,55.35
2018-11-29T05:56:43.971Z,55.55
2018-11-29T05:57:43.832Z,55.44
2018-11-29T05:58:43.820Z,55.55
2018-11-29T05:59:43.809Z,55.44
2018-11-29T06:00:43.799Z,55.65
2018-11-29T06:01:43.787Z,55.32
2018-11-29T06:02:43.931Z,55.35
2018-11-29T06:03:43.767Z,55.52
2018-11-29T06:04:43.755Z,55.42
2018-11-29T06:05:43.746Z,55.32
2018-11-29T06:06:43.739Z,55.52
2018-11-29T06:07:43.726Z,55.32
2018-11-29T06:08:43.812Z,55.52
2018-11-29T06:09:43.705Z,55.12
2018-11-29T06:10:43.692Z,55.49
2018-11-29T06:11:43.687Z,55.09
2018-11-29T06:12:43.670Z,55.49
2018-11-29T06:13:43.667Z,55.52
2018-11-29T06:14:43.800Z,55.59
2018-11-29T06:15:43.640Z,55.62
2018-11-29T06:16:43.635Z,53.99
2018-11-29T06:17:43.618Z,54.90
2018-11-29T06:18:43.607Z,54.99
2018-11-29T06:19:43.599Z,55.09
2018-11-29T06:20:43.858Z,55.09
2018-11-29T06:21:43.574Z,55.40
2018-11-29T06:22:43.571Z,54.97
2018-11-29T06:23:43.554Z,55.57
2018-11-29T06:24:43.543Z,55.36
2018-11-29T06:25:43.537Z,55.40
2018-11-29T06:26:43.616Z,55.57
2018-11-29T06:27:43.516Z,54.97
2018-11-29T06:28:43.502Z,55.17
2018-11-29T06:29:43.489Z,54.94
2018-11-29T06:30:43.478Z,54.86
2018-11-29T06:31:43.477Z,54.34
2018-11-29T06:32:43.628Z,55.24
2018-11-29T06:33:43.447Z,55.07
2018-11-29T06:34:43.444Z,55.74
2018-11-29T06:35:43.425Z,55.54
2018-11-29T06:36:43.414Z,55.14
2018-11-29T06:37:43.404Z,55.07
2018-11-29T06:38:43.559Z,55.36
2018-11-29T06:39:43.384Z,55.47
2018-11-29T06:40:43.373Z,55.34
2018-11-29T06:41:43.363Z,55.36
2018-11-29T06:42:43.352Z,55.47
2018-11-29T06:43:43.339Z,55.36
2018-11-29T06:44:43.428Z,55.27
2018-11-29T06:45:43.318Z,55.17
2018-11-29T06:46:43.313Z,55.07
2018-11-29T06:47:43.298Z,55.27
2018-11-29T06:48:43.287Z,55.07
2018-11-29T06:49:43.275Z,55.47
2018-11-29T06:50:43.364Z,55.47
2018-11-29T06:51:43.255Z,55.27
2018-11-29T06:52:43.243Z,55.57
2018-11-29T06:53:43.234Z,55.44
2018-11-29T06:54:43.222Z,55.36
2018-11-29T06:55:43.213Z,55.17
2018-11-29T06:56:43.518Z,55.14
2018-11-29T06:57:43.194Z,55.27
2018-11-29T06:58:43.185Z,55.07
2018-11-29T06:59:43.171Z,55.14
2018-11-29T07:00:43.161Z,55.17
2018-11-29T07:01:43.152Z,55.36
2018-11-29T07:02:43.259Z,55.17
2018-11-29T07:03:43.390Z,55.17
2018-11-29T07:04:43.117Z,55.14
2018-11-29T07:05:43.107Z,55.36
2018-11-29T07:06:43.094Z,55.36
2018-11-29T07:07:43.084Z,55.47
2018-11-29T07:08:43.182Z,55.57
2018-11-29T07:09:43.063Z,55.04
2018-11-29T07:10:43.052Z,55.24
2018-11-29T07:11:43.042Z,55.44
2018-11-29T07:12:43.031Z,55.24
2018-11-29T07:13:43.021Z,55.34
2018-11-29T07:14:43.119Z,55.24
2018-11-29T07:15:42.997Z,55.44
2018-11-29T07:16:42.990Z,55.04
2018-11-29T07:17:42.978Z,55.44
2018-11-29T07:18:42.966Z,55.14
2018-11-29T07:19:42.955Z,54.84
2018-11-29T07:20:43.267Z,55.04
2018-11-29T07:21:42.933Z,55.44
2018-11-29T07:22:42.924Z,55.04
2018-11-29T07:23:42.916Z,55.34
2018-11-29T07:24:42.903Z,55.24
2018-11-29T07:25:42.894Z,55.41
2018-11-29T07:26:42.980Z,55.24
2018-11-29T07:27:42.872Z,55.34
2018-11-29T07:28:42.861Z,54.61
2018-11-29T07:29:42.861Z,55.32
2018-11-29T07:30:42.839Z,55.41
2018-11-29T07:31:42.827Z,55.51
2018-11-29T07:32:43.280Z,55.41
2018-11-29T07:33:42.806Z,55.32
2018-11-29T07:34:42.796Z,55.11
2018-11-29T07:35:42.787Z,55.02
2018-11-29T07:36:42.775Z,55.29
2018-11-29T07:37:42.764Z,54.91
2018-11-29T07:38:42.849Z,55.09
2018-11-29T07:39:42.742Z,53.89
2018-11-29T07:40:42.731Z,55.21
2018-11-29T07:41:42.721Z,54.79
2018-11-29T07:42:42.718Z,54.89
2018-11-29T07:43:42.701Z,55.29
2018-11-29T07:44:42.890Z,54.79
2018-11-29T07:45:42.678Z,54.89
2018-11-29T07:46:42.669Z,54.66
2018-11-29T07:47:42.658Z,54.57
2018-11-29T07:48:42.654Z,54.86
2018-11-29T07:49:42.638Z,54.59
2018-11-29T07:50:42.913Z,54.69
2018-11-29T07:51:42.624Z,54.96
2018-11-29T07:52:42.602Z,54.76
2018-11-29T07:53:42.592Z,54.66
2018-11-29T07:54:42.605Z,54.66
2018-11-29T07:55:42.572Z,54.66
2018-11-29T07:56:42.668Z,54.66
2018-11-29T07:57:42.551Z,54.46
2018-11-29T07:58:42.539Z,54.66
2018-11-29T07:59:42.528Z,54.66
2018-11-29T08:00:42.525Z,54.06
2018-11-29T08:01:42.510Z,54.76
2018-11-29T08:02:42.653Z,54.76
2018-11-29T08:03:42.490Z,54.66
2018-11-29T08:04:42.474Z,54.36
2018-11-29T08:05:42.474Z,54.53
2018-11-29T08:06:42.454Z,54.24
2018-11-29T08:07:47.335Z,54.64
2018-11-29T08:08:43.534Z,54.64
2018-11-29T08:09:42.424Z,54.34
2018-11-29T08:10:42.413Z,53.84
2018-11-29T08:11:42.401Z,54.04
2018-11-29T08:12:42.389Z,54.04
2018-11-29T08:13:42.379Z,53.91
2018-11-29T08:14:42.540Z,53.91
2018-11-29T08:15:42.359Z,54.11
2018-11-29T08:16:42.367Z,53.11
2018-11-29T08:17:42.341Z,53.31
2018-11-29T08:18:42.326Z,54.19
2018-11-29T08:19:42.314Z,53.91
2018-11-29T08:21:51.176Z,53.39
2018-11-29T08:22:51.045Z,53.49
2018-11-29T08:23:51.029Z,53.39
2018-11-29T08:24:51.069Z,53.19
2018-11-29T08:25:51.025Z,53.29
2018-11-29T08:26:50.997Z,53.39
2018-11-29T08:27:51.099Z,53.29
2018-11-29T08:28:50.975Z,53.39
2018-11-29T08:29:50.966Z,53.27
2018-11-29T08:30:50.957Z,53.27
2018-11-29T08:31:50.944Z,53.06
2018-11-29T08:32:50.935Z,53.66
2018-11-29T08:33:51.088Z,53.16
2018-11-29T08:34:50.915Z,52.86
2018-11-29T08:35:50.905Z,53.36
2018-11-29T08:36:50.890Z,53.27
2018-11-29T08:37:50.917Z,52.97
2018-11-29T08:38:50.869Z,52.97
2018-11-29T08:39:50.968Z,53.24
2018-11-29T08:40:50.849Z,53.16
2018-11-29T08:41:50.837Z,53.56
2018-11-29T08:42:50.828Z,53.27
2018-11-29T08:43:50.820Z,53.96
2018-11-29T08:44:50.804Z,53.16
2018-11-29T08:45:50.952Z,53.46
2018-11-29T08:46:50.782Z,53.16
2018-11-29T08:47:50.786Z,53.16
2018-11-29T08:48:50.763Z,53.36
2018-11-29T08:49:50.749Z,53.44
2018-11-29T08:50:50.739Z,53.14
2018-11-29T08:51:50.889Z,52.86
2018-11-29T08:52:50.718Z,53.34
2018-11-29T08:53:50.713Z,52.76
2018-11-29T08:54:50.697Z,53.34
2018-11-29T08:55:50.685Z,53.14
2018-11-29T08:56:50.676Z,52.94
2018-11-29T08:57:50.775Z,52.54
2018-11-29T08:58:50.654Z,53.14
2018-11-29T08:59:50.644Z,52.54
2018-11-29T09:00:50.633Z,53.11
2018-11-29T09:01:50.621Z,53.44
2018-11-29T09:02:50.620Z,53.53
2018-11-29T09:03:50.714Z,53.94
2018-11-29T09:04:50.591Z,53.91
2018-11-29T09:05:50.588Z,52.91
2018-11-29T09:06:50.567Z,53.11
2018-11-29T09:07:50.560Z,53.24
2018-11-29T09:08:50.548Z,53.31
2018-11-29T09:09:50.750Z,53.11
2018-11-29T09:10:50.525Z,52.51
2018-11-29T09:11:50.516Z,52.62
2018-11-29T09:12:50.502Z,53.21
2018-11-29T09:13:50.493Z,53.21
2018-11-29T09:14:50.483Z,53.02
2018-11-29T09:15:50.641Z,53.21
2018-11-29T09:16:50.463Z,53.31
2018-11-29T09:17:50.452Z,53.41
2018-11-29T09:18:50.441Z,53.11
2018-11-29T09:19:50.430Z,53.21
2018-11-29T09:20:50.420Z,53.21
2018-11-29T09:21:50.520Z,53.21
2018-11-29T09:22:50.399Z,53.11
2018-11-29T09:23:50.390Z,53.31
2018-11-29T09:24:50.386Z,53.31
2018-11-29T09:25:50.370Z,53.21
2018-11-29T09:26:50.352Z,53.41
2018-11-29T09:27:50.449Z,53.41
2018-11-29T09:28:50.331Z,53.51
2018-11-29T09:29:50.324Z,53.31
2018-11-29T09:30:50.313Z,53.09
2018-11-29T09:31:50.300Z,53.21
2018-11-29T09:32:50.289Z,53.19
2018-11-29T09:33:50.628Z,52.69
2018-11-29T09:34:50.270Z,53.28
2018-11-29T09:35:50.256Z,53.39
2018-11-29T09:36:50.246Z,53.28
2018-11-29T09:37:50.240Z,53.69
2018-11-29T09:38:50.226Z,53.78
2018-11-29T09:39:50.469Z,53.69
2018-11-29T09:40:50.209Z,53.28
2018-11-29T09:41:50.210Z,52.99
2018-11-29T09:42:50.182Z,53.09
2018-11-29T09:43:50.170Z,52.99
2018-11-29T09:44:50.161Z,53.19
2018-11-29T09:45:50.279Z,53.49
2018-11-29T09:46:50.140Z,53.39
2018-11-29T09:47:50.129Z,53.49
2018-11-29T09:48:50.117Z,53.28
2018-11-29T09:49:50.107Z,53.46
2018-11-29T09:50:50.105Z,53.26
2018-11-29T09:51:50.195Z,52.96
2018-11-29T09:52:50.079Z,52.67
2018-11-29T09:53:50.063Z,52.96
2018-11-29T09:54:50.053Z,52.96
2018-11-29T09:55:50.044Z,53.26
2018-11-29T09:56:50.030Z,53.36
2018-11-29T09:57:50.180Z,53.06
2018-11-29T09:58:50.012Z,53.26
2018-11-29T09:59:50.001Z,53.16
2018-11-29T10:00:49.989Z,53.36
2018-11-29T10:01:49.980Z,52.86
2018-11-29T10:02:49.969Z,53.33
2018-11-29T10:03:50.264Z,52.84
2018-11-29T10:04:49.946Z,53.36
2018-11-29T10:05:49.935Z,53.23
2018-11-29T10:06:49.930Z,53.44
2018-11-29T10:07:49.914Z,53.14
2018-11-29T10:08:49.903Z,53.14
2018-11-29T10:09:49.998Z,53.56
2018-11-29T10:10:49.880Z,53.14
2018-11-29T10:11:49.871Z,53.36
2018-11-29T10:12:49.864Z,53.66
2018-11-29T10:13:49.888Z,54.13
2018-11-29T10:14:49.916Z,53.93
2018-11-29T10:15:49.980Z,54.43
2018-11-29T10:16:49.819Z,54.16
2018-11-29T10:17:49.806Z,54.03
2018-11-29T10:18:49.795Z,53.06
2018-11-29T10:19:49.783Z,53.33
2018-11-29T10:20:49.772Z,53.63
2018-11-29T10:21:50.029Z,53.33
2018-11-29T10:22:49.755Z,53.23
2018-11-29T10:23:49.741Z,53.14
2018-11-29T10:24:49.730Z,53.31
2018-11-29T10:25:49.720Z,53.01
2018-11-29T10:26:49.741Z,53.21
2018-11-29T10:27:49.809Z,52.81
2018-11-29T10:28:49.690Z,52.89
2018-11-29T10:29:49.679Z,52.59
2018-11-29T10:30:49.665Z,52.39
2018-11-29T10:31:49.655Z,52.59
2018-11-29T10:32:49.650Z,52.49
2018-11-29T10:33:49.885Z,52.49
2018-11-29T10:34:49.623Z,52.59
2018-11-29T10:35:49.612Z,52.29
2018-11-29T10:36:49.606Z,52.56
2018-11-29T10:37:49.591Z,52.37
2018-11-29T10:38:49.581Z,51.94
2018-11-29T10:39:49.672Z,51.84
2018-11-29T10:40:49.571Z,51.65
2018-11-29T10:41:50.545Z,51.82
2018-11-29T10:42:49.537Z,51.92
2018-11-29T10:43:49.534Z,51.72
2018-11-29T10:44:49.522Z,51.52
2018-11-29T10:45:49.663Z,51.42
2018-11-29T10:46:49.495Z,52.02
2018-11-29T10:47:52.492Z,51.92
2018-11-29T10:48:49.479Z,51.92
2018-11-29T10:49:49.466Z,52.12
2018-11-29T10:50:49.512Z,52.44
2018-11-29T10:51:49.608Z,52.12
2018-11-29T10:52:49.443Z,52.71
2018-11-29T10:53:49.423Z,52.34
2018-11-29T10:54:49.408Z,52.31
2018-11-29T10:55:49.398Z,52.24
2018-11-29T10:56:49.388Z,52.64
2018-11-29T10:57:49.484Z,52.44
2018-11-29T10:58:49.364Z,52.54
2018-11-29T10:59:49.356Z,52.26
2018-11-29T11:00:49.345Z,53.03
2018-11-29T11:01:49.348Z,52.86
2018-11-29T11:02:49.331Z,52.47
2018-11-29T11:03:49.419Z,52.96
2018-11-29T11:04:49.302Z,52.86
2018-11-29T11:05:49.303Z,52.76
2018-11-29T11:06:49.278Z,52.86
2018-11-29T11:07:49.286Z,52.84
2018-11-29T11:08:49.264Z,52.34
2018-11-29T11:09:50.024Z,52.44
2018-11-29T11:10:49.237Z,52.47
2018-11-29T11:11:49.225Z,52.34
2018-11-29T11:12:49.219Z,52.47
2018-11-29T11:13:49.214Z,52.34
2018-11-29T11:14:49.195Z,51.94
2018-11-29T11:15:49.296Z,52.14
2018-11-29T11:16:49.171Z,52.24
2018-11-29T11:17:49.163Z,52.14
2018-11-29T11:18:49.152Z,52.14
2018-11-29T11:19:49.152Z,52.24
2018-11-29T11:20:49.130Z,52.31
2018-11-29T11:21:49.217Z,52.41
2018-11-29T11:22:49.108Z,52.31
2018-11-29T11:23:49.102Z,52.12
2018-11-29T11:24:49.093Z,52.12
2018-11-29T11:25:49.078Z,52.02
2018-11-29T11:26:49.072Z,51.92
2018-11-29T11:27:49.212Z,51.89
2018-11-29T11:28:49.044Z,51.92
2018-11-29T11:29:49.043Z,51.89
2018-11-29T11:30:49.020Z,51.70
2018-11-29T11:31:49.009Z,51.89
2018-11-29T11:32:49.001Z,51.70
2018-11-29T11:33:49.203Z,51.89
2018-11-29T11:34:48.978Z,51.79
2018-11-29T11:35:48.978Z,51.89
2018-11-29T11:36:48.959Z,51.70
2018-11-29T11:37:48.945Z,51.89
2018-11-29T11:38:48.948Z,51.70
2018-11-29T11:39:49.055Z,51.89
2018-11-29T11:40:48.914Z,51.79
2018-11-29T11:41:48.901Z,51.99
2018-11-29T11:42:48.890Z,51.67
2018-11-29T11:43:48.881Z,51.37
2018-11-29T11:44:48.870Z,51.45
2018-11-29T11:45:48.969Z,51.25
2018-11-29T11:46:48.848Z,51.05
2018-11-29T11:47:48.840Z,51.45
2018-11-29T11:48:48.826Z,51.25
2018-11-29T11:49:48.817Z,51.52
2018-11-29T11:50:48.805Z,51.05
2018-11-29T11:51:48.961Z,51.23
2018-11-29T11:52:48.785Z,51.23
2018-11-29T11:53:48.773Z,51.13
2018-11-29T11:54:48.761Z,51.32
2018-11-29T11:55:53.612Z,51.13
2018-11-29T11:56:49.838Z,51.23
2018-11-29T11:57:48.734Z,50.83
2018-11-29T11:58:48.718Z,50.41
2018-11-29T11:59:48.727Z,50.07
2018-11-29T12:00:48.697Z,49.45
2018-11-29T12:01:48.688Z,49.40
2018-11-29T12:02:48.843Z,49.20
2018-11-29T12:03:48.667Z,49.10
2018-11-29T12:04:48.809Z,49.50
2018-11-29T12:05:48.648Z,49.08
2018-11-29T12:06:48.633Z,49.26
2018-11-29T12:07:48.630Z,48.94
2018-11-29T12:08:48.737Z,49.04
2018-11-29T12:09:48.602Z,49.73
2018-11-29T12:10:48.592Z,48.66
2018-11-29T12:11:48.579Z,49.45
2018-11-29T12:12:48.570Z,48.83
2018-11-29T12:13:48.561Z,49.23
2018-11-29T12:14:48.813Z,49.04
2018-11-29T12:15:48.541Z,49.73
2018-11-29T12:16:48.531Z,49.35
2018-11-29T12:17:48.528Z,49.75
2018-11-29T12:18:48.506Z,50.04
2018-11-29T12:19:48.506Z,49.87
2018-11-29T12:20:48.650Z,50.09
2018-11-29T12:21:48.476Z,50.09
2018-11-29T12:22:48.469Z,50.59
2018-11-29T12:23:48.453Z,50.49
2018-11-29T12:24:48.443Z,50.38
2018-11-29T12:25:48.436Z,50.51
2018-11-29T12:26:48.514Z,50.61
2018-11-29T12:27:48.413Z,50.68
2018-11-29T12:28:48.410Z,49.99
2018-11-29T12:29:48.389Z,50.19
2018-11-29T12:30:48.385Z,49.90
2018-11-29T12:31:48.367Z,50.09
2018-11-29T12:32:48.663Z,50.41
2018-11-29T12:33:48.347Z,50.61
2018-11-29T12:34:48.344Z,50.31
2018-11-29T12:35:48.326Z,50.51
2018-11-29T12:36:48.314Z,51.03
2018-11-29T12:37:48.304Z,51.15
2018-11-29T12:38:48.407Z,51.25
2018-11-29T12:39:48.305Z,51.35
2018-11-29T12:40:48.280Z,50.54
2018-11-29T12:41:48.261Z,50.54
2018-11-29T12:42:48.250Z,50.12
2018-11-29T12:43:48.244Z,50.02
2018-11-29T12:44:48.328Z,50.02
2018-11-29T12:45:48.219Z,50.54
2018-11-29T12:46:48.208Z,50.83
2018-11-29T12:47:48.213Z,50.85
2018-11-29T12:48:48.187Z,51.05
2018-11-29T12:49:48.176Z,51.05
2018-11-29T12:50:49.006Z,50.59
2018-11-29T12:51:48.668Z,51.67
2018-11-29T12:52:48.145Z,50.88
2018-11-29T12:53:48.134Z,51.18